sensor_id;sensor_type;location;lat;lon;timestamp;P1;durP1;ratioP1;P2;durP2;ratioP2
58928;SDS011;44713;53.378;10.022;2022-12-18T00:01:40;24.38;;;11.75;;
58928;SDS011;44713;53.378;10.022;2022-12-18T00:04:06;27.10;;;12.10;;
58928;SDS011;44713;53.378;10.022;2022-12-18T00:06:33;30.25;;;14.75;;
58928;SDS011;44713;53.378;10.022;2022-12-18T00:09:00;29.95;;;13.52;;
58928;SDS011;44713;53.378;10.022;2022-12-18T00:11:27;27.50;;;13.43;;
58928;SDS011;44713;53.378;10.022;2022-12-18T00:13:55;29.83;;;14.30;;
58928;SDS011;44713;53.378;10.022;2022-12-18T00:16:22;29.58;;;14.27;;
58928;SDS011;44713;53.378;10.022;2022-12-18T00:18:50;25.58;;;13.43;;
58928;SDS011;44713;53.378;10.022;2022-12-18T00:21:17;23.83;;;12.85;;
58928;SDS011;44713;53.378;10.022;2022-12-18T00:23:43;26.17;;;11.43;;
58928;SDS011;44713;53.378;10.022;2022-12-18T00:26:11;24.88;;;12.95;;
58928;SDS011;44713;53.378;10.022;2022-12-18T00:28:40;22.70;;;12.15;;
58928;SDS011;44713;53.378;10.022;2022-12-18T00:31:07;29.83;;;10.90;;
58928;SDS011;44713;53.378;10.022;2022-12-18T00:33:34;27.48;;;12.02;;
58928;SDS011;44713;53.378;10.022;2022-12-18T00:36:01;29.98;;;11.02;;
58928;SDS011;44713;53.378;10.022;2022-12-18T00:38:27;24.77;;;11.80;;
58928;SDS011;44713;53.378;10.022;2022-12-18T00:40:52;24.63;;;12.32;;
58928;SDS011;44713;53.378;10.022;2022-12-18T00:43:18;26.27;;;12.20;;
58928;SDS011;44713;53.378;10.022;2022-12-18T00:45:43;32.13;;;13.40;;
58928;SDS011;44713;53.378;10.022;2022-12-18T00:48:09;25.13;;;12.80;;
58928;SDS011;44713;53.378;10.022;2022-12-18T00:50:34;27.13;;;12.07;;
58928;SDS011;44713;53.378;10.022;2022-12-18T00:53:00;23.03;;;12.63;;
58928;SDS011;44713;53.378;10.022;2022-12-18T00:55:25;25.70;;;11.60;;
58928;SDS011;44713;53.378;10.022;2022-12-18T00:57:51;26.38;;;11.82;;
58928;SDS011;44713;53.378;10.022;2022-12-18T01:00:17;27.48;;;11.85;;
58928;SDS011;44713;53.378;10.022;2022-12-18T01:02:43;25.20;;;12.02;;
58928;SDS011;44713;53.378;10.022;2022-12-18T01:05:09;25.60;;;12.23;;
58928;SDS011;44713;53.378;10.022;2022-12-18T01:07:36;22.25;;;9.88;;
58928;SDS011;44713;53.378;10.022;2022-12-18T01:10:02;22.25;;;11.18;;
58928;SDS011;44713;53.378;10.022;2022-12-18T01:12:29;24.20;;;11.63;;
58928;SDS011;44713;53.378;10.022;2022-12-18T01:14:54;22.53;;;11.13;;
58928;SDS011;44713;53.378;10.022;2022-12-18T01:17:19;23.30;;;11.50;;
58928;SDS011;44713;53.378;10.022;2022-12-18T01:19:46;26.80;;;11.80;;
58928;SDS011;44713;53.378;10.022;2022-12-18T01:22:11;24.17;;;11.17;;
58928;SDS011;44713;53.378;10.022;2022-12-18T01:24:37;23.27;;;11.02;;
58928;SDS011;44713;53.378;10.022;2022-12-18T01:27:02;21.50;;;10.63;;
58928;SDS011;44713;53.378;10.022;2022-12-18T01:29:27;20.97;;;9.33;;
58928;SDS011;44713;53.378;10.022;2022-12-18T01:31:54;22.33;;;10.30;;
58928;SDS011;44713;53.378;10.022;2022-12-18T01:34:22;25.02;;;10.52;;
58928;SDS011;44713;53.378;10.022;2022-12-18T01:36:48;18.23;;;9.38;;
58928;SDS011;44713;53.378;10.022;2022-12-18T01:39:14;21.63;;;10.57;;
58928;SDS011;44713;53.378;10.022;2022-12-18T01:41:40;20.83;;;9.80;;
58928;SDS011;44713;53.378;10.022;2022-12-18T01:47:09;24.90;;;13.23;;
58928;SDS011;44713;53.378;10.022;2022-12-18T01:49:40;24.08;;;12.52;;
58928;SDS011;44713;53.378;10.022;2022-12-18T01:52:05;23.30;;;10.20;;
58928;SDS011;44713;53.378;10.022;2022-12-18T01:54:30;23.08;;;9.38;;
58928;SDS011;44713;53.378;10.022;2022-12-18T01:56:56;22.25;;;9.15;;
58928;SDS011;44713;53.378;10.022;2022-12-18T01:59:21;23.10;;;11.30;;
58928;SDS011;44713;53.378;10.022;2022-12-18T02:01:47;19.27;;;11.23;;
58928;SDS011;44713;53.378;10.022;2022-12-18T02:04:23;19.83;;;10.52;;
58928;SDS011;44713;53.378;10.022;2022-12-18T02:06:51;18.92;;;9.77;;
58928;SDS011;44713;53.378;10.022;2022-12-18T02:14:45;20.90;;;10.00;;
58928;SDS011;44713;53.378;10.022;2022-12-18T02:17:21;25.83;;;10.60;;
58928;SDS011;44713;53.378;10.022;2022-12-18T02:23:00;22.73;;;8.97;;
58928;SDS011;44713;53.378;10.022;2022-12-18T02:25:40;20.90;;;9.80;;
58928;SDS011;44713;53.378;10.022;2022-12-18T02:28:27;20.85;;;9.88;;
58928;SDS011;44713;53.378;10.022;2022-12-18T02:31:04;24.57;;;11.00;;
58928;SDS011;44713;53.378;10.022;2022-12-18T02:33:33;26.57;;;10.03;;
58928;SDS011;44713;53.378;10.022;2022-12-18T02:36:00;21.75;;;10.10;;
58928;SDS011;44713;53.378;10.022;2022-12-18T02:38:27;22.75;;;10.23;;
58928;SDS011;44713;53.378;10.022;2022-12-18T02:40:59;23.13;;;9.75;;
58928;SDS011;44713;53.378;10.022;2022-12-18T02:43:25;18.10;;;9.70;;
58928;SDS011;44713;53.378;10.022;2022-12-18T02:45:56;20.65;;;9.52;;
58928;SDS011;44713;53.378;10.022;2022-12-18T02:48:33;20.85;;;9.80;;
58928;SDS011;44713;53.378;10.022;2022-12-18T02:51:04;15.43;;;8.60;;
58928;SDS011;44713;53.378;10.022;2022-12-18T02:53:51;18.77;;;9.75;;
58928;SDS011;44713;53.378;10.022;2022-12-18T02:56:30;19.10;;;9.38;;
58928;SDS011;44713;53.378;10.022;2022-12-18T02:59:07;18.30;;;9.10;;
58928;SDS011;44713;53.378;10.022;2022-12-18T03:04:14;19.25;;;8.88;;
58928;SDS011;44713;53.378;10.022;2022-12-18T03:06:49;17.02;;;9.00;;
58928;SDS011;44713;53.378;10.022;2022-12-18T03:09:22;21.50;;;10.10;;
58928;SDS011;44713;53.378;10.022;2022-12-18T03:12:04;24.20;;;10.27;;
58928;SDS011;44713;53.378;10.022;2022-12-18T03:14:52;21.83;;;9.13;;
58928;SDS011;44713;53.378;10.022;2022-12-18T03:17:23;18.33;;;8.87;;
58928;SDS011;44713;53.378;10.022;2022-12-18T03:19:51;19.10;;;8.97;;
58928;SDS011;44713;53.378;10.022;2022-12-18T03:22:21;20.70;;;9.48;;
58928;SDS011;44713;53.378;10.022;2022-12-18T03:24:51;17.27;;;8.90;;
58928;SDS011;44713;53.378;10.022;2022-12-18T03:27:19;17.42;;;8.70;;
58928;SDS011;44713;53.378;10.022;2022-12-18T03:30:11;19.00;;;8.23;;
58928;SDS011;44713;53.378;10.022;2022-12-18T03:35:33;17.50;;;8.30;;
58928;SDS011;44713;53.378;10.022;2022-12-18T03:38:03;22.47;;;9.03;;
58928;SDS011;44713;53.378;10.022;2022-12-18T03:40:39;16.57;;;8.70;;
58928;SDS011;44713;53.378;10.022;2022-12-18T03:46:37;18.03;;;7.63;;
58928;SDS011;44713;53.378;10.022;2022-12-18T03:49:14;17.33;;;7.70;;
58928;SDS011;44713;53.378;10.022;2022-12-18T03:51:51;19.67;;;9.30;;
58928;SDS011;44713;53.378;10.022;2022-12-18T03:54:22;22.00;;;8.33;;
58928;SDS011;44713;53.378;10.022;2022-12-18T03:56:59;18.47;;;8.77;;
58928;SDS011;44713;53.378;10.022;2022-12-18T03:59:29;15.33;;;8.20;;
58928;SDS011;44713;53.378;10.022;2022-12-18T04:01:56;19.27;;;9.27;;
58928;SDS011;44713;53.378;10.022;2022-12-18T04:04:24;17.90;;;8.30;;
58928;SDS011;44713;53.378;10.022;2022-12-18T04:06:52;18.63;;;8.87;;
58928;SDS011;44713;53.378;10.022;2022-12-18T04:09:19;16.80;;;8.50;;
58928;SDS011;44713;53.378;10.022;2022-12-18T04:11:46;21.73;;;9.23;;
58928;SDS011;44713;53.378;10.022;2022-12-18T04:14:13;20.50;;;8.80;;
58928;SDS011;44713;53.378;10.022;2022-12-18T04:16:40;20.03;;;8.97;;
58928;SDS011;44713;53.378;10.022;2022-12-18T04:19:08;15.67;;;9.23;;
58928;SDS011;44713;53.378;10.022;2022-12-18T04:21:38;14.17;;;7.13;;
58928;SDS011;44713;53.378;10.022;2022-12-18T04:24:04;18.87;;;8.23;;
58928;SDS011;44713;53.378;10.022;2022-12-18T04:26:31;20.57;;;8.73;;
58928;SDS011;44713;53.378;10.022;2022-12-18T04:29:10;19.97;;;8.60;;
58928;SDS011;44713;53.378;10.022;2022-12-18T04:31:36;20.03;;;8.73;;
58928;SDS011;44713;53.378;10.022;2022-12-18T04:34:02;18.73;;;9.03;;
58928;SDS011;44713;53.378;10.022;2022-12-18T04:36:30;20.70;;;9.20;;
58928;SDS011;44713;53.378;10.022;2022-12-18T04:38:55;18.37;;;8.70;;
58928;SDS011;44713;53.378;10.022;2022-12-18T04:41:21;25.13;;;8.60;;
58928;SDS011;44713;53.378;10.022;2022-12-18T04:43:47;15.53;;;8.03;;
58928;SDS011;44713;53.378;10.022;2022-12-18T04:46:13;19.30;;;8.17;;
58928;SDS011;44713;53.378;10.022;2022-12-18T04:48:39;17.60;;;8.43;;
58928;SDS011;44713;53.378;10.022;2022-12-18T04:51:05;21.70;;;9.27;;
58928;SDS011;44713;53.378;10.022;2022-12-18T04:53:31;17.47;;;9.23;;
58928;SDS011;44713;53.378;10.022;2022-12-18T04:56:07;16.27;;;8.43;;
58928;SDS011;44713;53.378;10.022;2022-12-18T04:58:34;19.50;;;9.03;;
58928;SDS011;44713;53.378;10.022;2022-12-18T05:01:01;16.33;;;8.30;;
58928;SDS011;44713;53.378;10.022;2022-12-18T05:03:28;19.00;;;8.40;;
58928;SDS011;44713;53.378;10.022;2022-12-18T05:05:54;20.33;;;9.27;;
58928;SDS011;44713;53.378;10.022;2022-12-18T05:08:19;17.57;;;8.40;;
58928;SDS011;44713;53.378;10.022;2022-12-18T05:10:44;16.20;;;8.97;;
58928;SDS011;44713;53.378;10.022;2022-12-18T05:13:10;17.43;;;9.00;;
58928;SDS011;44713;53.378;10.022;2022-12-18T05:15:35;21.53;;;9.43;;
58928;SDS011;44713;53.378;10.022;2022-12-18T05:18:01;22.20;;;9.10;;
58928;SDS011;44713;53.378;10.022;2022-12-18T05:20:27;22.80;;;8.80;;
58928;SDS011;44713;53.378;10.022;2022-12-18T05:22:53;18.90;;;9.13;;
58928;SDS011;44713;53.378;10.022;2022-12-18T05:25:19;16.33;;;8.52;;
58928;SDS011;44713;53.378;10.022;2022-12-18T05:27:45;21.07;;;9.57;;
58928;SDS011;44713;53.378;10.022;2022-12-18T05:30:11;22.20;;;8.73;;
58928;SDS011;44713;53.378;10.022;2022-12-18T05:32:37;19.43;;;8.53;;
58928;SDS011;44713;53.378;10.022;2022-12-18T05:35:03;18.07;;;7.73;;
58928;SDS011;44713;53.378;10.022;2022-12-18T05:37:29;20.63;;;8.53;;
58928;SDS011;44713;53.378;10.022;2022-12-18T05:39:55;19.07;;;9.03;;
58928;SDS011;44713;53.378;10.022;2022-12-18T05:42:21;15.65;;;8.35;;
58928;SDS011;44713;53.378;10.022;2022-12-18T05:44:46;18.10;;;9.23;;
58928;SDS011;44713;53.378;10.022;2022-12-18T05:47:11;15.00;;;8.53;;
58928;SDS011;44713;53.378;10.022;2022-12-18T05:49:37;15.00;;;9.03;;
58928;SDS011;44713;53.378;10.022;2022-12-18T05:52:02;21.27;;;8.80;;
58928;SDS011;44713;53.378;10.022;2022-12-18T05:54:27;16.63;;;8.30;;
58928;SDS011;44713;53.378;10.022;2022-12-18T05:56:53;15.37;;;8.43;;
58928;SDS011;44713;53.378;10.022;2022-12-18T05:59:19;17.70;;;8.20;;
58928;SDS011;44713;53.378;10.022;2022-12-18T06:01:44;18.67;;;8.07;;
58928;SDS011;44713;53.378;10.022;2022-12-18T06:04:10;14.17;;;7.27;;
58928;SDS011;44713;53.378;10.022;2022-12-18T06:06:35;16.07;;;7.77;;
58928;SDS011;44713;53.378;10.022;2022-12-18T06:09:01;12.67;;;7.73;;
58928;SDS011;44713;53.378;10.022;2022-12-18T06:11:33;16.90;;;8.20;;
58928;SDS011;44713;53.378;10.022;2022-12-18T06:13:59;16.07;;;7.67;;
58928;SDS011;44713;53.378;10.022;2022-12-18T06:16:25;17.83;;;8.33;;
58928;SDS011;44713;53.378;10.022;2022-12-18T06:18:51;14.00;;;7.20;;
58928;SDS011;44713;53.378;10.022;2022-12-18T06:21:16;17.53;;;7.93;;
58928;SDS011;44713;53.378;10.022;2022-12-18T06:23:41;18.13;;;7.70;;
58928;SDS011;44713;53.378;10.022;2022-12-18T06:26:08;14.43;;;7.73;;
58928;SDS011;44713;53.378;10.022;2022-12-18T06:28:35;16.20;;;7.97;;
58928;SDS011;44713;53.378;10.022;2022-12-18T06:31:00;19.17;;;8.27;;
58928;SDS011;44713;53.378;10.022;2022-12-18T06:33:28;15.80;;;7.83;;
58928;SDS011;44713;53.378;10.022;2022-12-18T06:35:54;21.60;;;8.90;;
58928;SDS011;44713;53.378;10.022;2022-12-18T06:38:24;24.17;;;9.93;;
58928;SDS011;44713;53.378;10.022;2022-12-18T06:40:49;16.67;;;8.37;;
58928;SDS011;44713;53.378;10.022;2022-12-18T06:43:14;18.63;;;7.67;;
58928;SDS011;44713;53.378;10.022;2022-12-18T06:45:40;16.60;;;7.90;;
58928;SDS011;44713;53.378;10.022;2022-12-18T06:48:05;20.73;;;9.03;;
58928;SDS011;44713;53.378;10.022;2022-12-18T06:50:30;16.93;;;7.53;;
58928;SDS011;44713;53.378;10.022;2022-12-18T06:52:56;16.27;;;7.87;;
58928;SDS011;44713;53.378;10.022;2022-12-18T06:55:21;20.23;;;8.37;;
58928;SDS011;44713;53.378;10.022;2022-12-18T06:57:46;14.33;;;7.27;;
58928;SDS011;44713;53.378;10.022;2022-12-18T07:00:12;19.83;;;8.60;;
58928;SDS011;44713;53.378;10.022;2022-12-18T07:02:38;16.83;;;8.77;;
58928;SDS011;44713;53.378;10.022;2022-12-18T07:05:04;20.10;;;9.30;;
58928;SDS011;44713;53.378;10.022;2022-12-18T07:07:30;18.47;;;8.83;;
58928;SDS011;44713;53.378;10.022;2022-12-18T07:09:55;22.57;;;8.90;;
58928;SDS011;44713;53.378;10.022;2022-12-18T07:12:20;18.43;;;7.77;;
58928;SDS011;44713;53.378;10.022;2022-12-18T07:14:45;19.60;;;8.70;;
58928;SDS011;44713;53.378;10.022;2022-12-18T07:17:11;18.20;;;8.27;;
58928;SDS011;44713;53.378;10.022;2022-12-18T07:19:36;20.30;;;9.27;;
58928;SDS011;44713;53.378;10.022;2022-12-18T07:22:02;16.53;;;8.67;;
58928;SDS011;44713;53.378;10.022;2022-12-18T07:24:27;20.03;;;9.30;;
58928;SDS011;44713;53.378;10.022;2022-12-18T07:26:53;19.93;;;8.60;;
58928;SDS011;44713;53.378;10.022;2022-12-18T07:29:18;22.83;;;9.07;;
58928;SDS011;44713;53.378;10.022;2022-12-18T07:31:44;19.10;;;9.07;;
58928;SDS011;44713;53.378;10.022;2022-12-18T07:34:10;22.17;;;8.93;;
58928;SDS011;44713;53.378;10.022;2022-12-18T07:36:36;15.80;;;8.50;;
58928;SDS011;44713;53.378;10.022;2022-12-18T07:39:02;17.80;;;8.43;;
58928;SDS011;44713;53.378;10.022;2022-12-18T07:41:27;19.00;;;8.83;;
58928;SDS011;44713;53.378;10.022;2022-12-18T07:43:53;16.77;;;7.83;;
58928;SDS011;44713;53.378;10.022;2022-12-18T07:46:18;18.17;;;8.90;;
58928;SDS011;44713;53.378;10.022;2022-12-18T07:48:44;17.77;;;8.13;;
58928;SDS011;44713;53.378;10.022;2022-12-18T07:51:09;21.80;;;9.27;;
58928;SDS011;44713;53.378;10.022;2022-12-18T07:53:35;19.10;;;7.80;;
58928;SDS011;44713;53.378;10.022;2022-12-18T07:56:01;17.83;;;8.97;;
58928;SDS011;44713;53.378;10.022;2022-12-18T07:58:29;16.73;;;7.53;;
58928;SDS011;44713;53.378;10.022;2022-12-18T08:01:01;24.00;;;9.67;;
58928;SDS011;44713;53.378;10.022;2022-12-18T08:03:28;17.27;;;9.43;;
58928;SDS011;44713;53.378;10.022;2022-12-18T08:05:57;18.23;;;8.50;;
58928;SDS011;44713;53.378;10.022;2022-12-18T08:08:24;19.93;;;9.03;;
58928;SDS011;44713;53.378;10.022;2022-12-18T08:10:49;18.50;;;8.13;;
58928;SDS011;44713;53.378;10.022;2022-12-18T08:13:14;20.33;;;10.47;;
58928;SDS011;44713;53.378;10.022;2022-12-18T08:15:41;20.70;;;9.80;;
58928;SDS011;44713;53.378;10.022;2022-12-18T08:18:06;23.43;;;9.73;;
58928;SDS011;44713;53.378;10.022;2022-12-18T08:20:32;25.07;;;9.80;;
58928;SDS011;44713;53.378;10.022;2022-12-18T08:22:57;21.13;;;9.33;;
58928;SDS011;44713;53.378;10.022;2022-12-18T08:25:23;16.87;;;9.17;;
58928;SDS011;44713;53.378;10.022;2022-12-18T08:27:48;23.13;;;10.00;;
58928;SDS011;44713;53.378;10.022;2022-12-18T08:30:14;20.83;;;9.73;;
58928;SDS011;44713;53.378;10.022;2022-12-18T08:32:39;17.10;;;8.97;;
58928;SDS011;44713;53.378;10.022;2022-12-18T08:35:04;20.60;;;9.43;;
58928;SDS011;44713;53.378;10.022;2022-12-18T08:37:30;20.10;;;9.27;;
58928;SDS011;44713;53.378;10.022;2022-12-18T08:39:56;19.08;;;9.32;;
58928;SDS011;44713;53.378;10.022;2022-12-18T08:42:21;18.57;;;9.50;;
58928;SDS011;44713;53.378;10.022;2022-12-18T08:45:05;18.58;;;8.90;;
58928;SDS011;44713;53.378;10.022;2022-12-18T08:47:31;19.40;;;9.77;;
58928;SDS011;44713;53.378;10.022;2022-12-18T08:49:57;16.75;;;9.55;;
58928;SDS011;44713;53.378;10.022;2022-12-18T08:52:22;22.35;;;9.90;;
58928;SDS011;44713;53.378;10.022;2022-12-18T08:54:48;16.15;;;8.60;;
58928;SDS011;44713;53.378;10.022;2022-12-18T08:57:13;21.10;;;8.77;;
58928;SDS011;44713;53.378;10.022;2022-12-18T08:59:38;23.98;;;9.40;;
58928;SDS011;44713;53.378;10.022;2022-12-18T09:02:04;23.38;;;9.25;;
58928;SDS011;44713;53.378;10.022;2022-12-18T09:04:29;19.50;;;9.15;;
58928;SDS011;44713;53.378;10.022;2022-12-18T09:06:54;17.80;;;8.93;;
58928;SDS011;44713;53.378;10.022;2022-12-18T09:09:20;18.38;;;9.13;;
58928;SDS011;44713;53.378;10.022;2022-12-18T09:11:45;22.23;;;10.47;;
58928;SDS011;44713;53.378;10.022;2022-12-18T09:14:10;22.25;;;10.88;;
58928;SDS011;44713;53.378;10.022;2022-12-18T09:16:36;20.10;;;9.88;;
58928;SDS011;44713;53.378;10.022;2022-12-18T09:19:02;17.88;;;9.10;;
58928;SDS011;44713;53.378;10.022;2022-12-18T09:21:29;21.33;;;9.73;;
58928;SDS011;44713;53.378;10.022;2022-12-18T09:23:56;18.50;;;8.68;;
58928;SDS011;44713;53.378;10.022;2022-12-18T09:26:22;21.15;;;9.10;;
58928;SDS011;44713;53.378;10.022;2022-12-18T09:28:50;19.48;;;9.80;;
58928;SDS011;44713;53.378;10.022;2022-12-18T09:31:16;20.15;;;9.00;;
58928;SDS011;44713;53.378;10.022;2022-12-18T09:33:42;18.13;;;8.63;;
58928;SDS011;44713;53.378;10.022;2022-12-18T09:36:09;16.40;;;8.50;;
58928;SDS011;44713;53.378;10.022;2022-12-18T09:38:36;22.60;;;9.45;;
58928;SDS011;44713;53.378;10.022;2022-12-18T09:41:04;19.83;;;9.93;;
58928;SDS011;44713;53.378;10.022;2022-12-18T09:43:41;20.05;;;8.60;;
58928;SDS011;44713;53.378;10.022;2022-12-18T09:46:11;16.00;;;8.90;;
58928;SDS011;44713;53.378;10.022;2022-12-18T09:48:43;17.15;;;8.60;;
58928;SDS011;44713;53.378;10.022;2022-12-18T09:51:33;17.48;;;9.00;;
58928;SDS011;44713;53.378;10.022;2022-12-18T09:54:05;20.05;;;9.55;;
58928;SDS011;44713;53.378;10.022;2022-12-18T09:56:38;19.73;;;9.73;;
58928;SDS011;44713;53.378;10.022;2022-12-18T09:59:09;17.80;;;8.80;;
58928;SDS011;44713;53.378;10.022;2022-12-18T10:01:51;19.73;;;9.18;;
58928;SDS011;44713;53.378;10.022;2022-12-18T10:04:17;16.88;;;8.68;;
58928;SDS011;44713;53.378;10.022;2022-12-18T10:06:52;25.80;;;10.35;;
58928;SDS011;44713;53.378;10.022;2022-12-18T10:09:55;20.95;;;8.52;;
58928;SDS011;44713;53.378;10.022;2022-12-18T10:12:41;19.48;;;8.60;;
58928;SDS011;44713;53.378;10.022;2022-12-18T10:18:29;20.35;;;9.73;;
58928;SDS011;44713;53.378;10.022;2022-12-18T10:24:33;16.55;;;8.57;;
58928;SDS011;44713;53.378;10.022;2022-12-18T10:27:14;13.77;;;7.78;;
58928;SDS011;44713;53.378;10.022;2022-12-18T10:29:42;18.27;;;8.82;;
58928;SDS011;44713;53.378;10.022;2022-12-18T10:32:17;14.95;;;7.68;;
58928;SDS011;44713;53.378;10.022;2022-12-18T10:34:56;16.47;;;8.07;;
58928;SDS011;44713;53.378;10.022;2022-12-18T10:37:23;16.92;;;9.05;;
58928;SDS011;44713;53.378;10.022;2022-12-18T10:40:07;18.58;;;8.98;;
58928;SDS011;44713;53.378;10.022;2022-12-18T10:42:37;14.88;;;7.68;;
58928;SDS011;44713;53.378;10.022;2022-12-18T10:45:08;16.60;;;8.88;;
58928;SDS011;44713;53.378;10.022;2022-12-18T10:47:36;18.23;;;7.75;;
58928;SDS011;44713;53.378;10.022;2022-12-18T10:52:44;13.00;;;7.45;;
58928;SDS011;44713;53.378;10.022;2022-12-18T10:55:22;20.88;;;8.10;;
58928;SDS011;44713;53.378;10.022;2022-12-18T10:57:47;14.18;;;7.72;;
58928;SDS011;44713;53.378;10.022;2022-12-18T11:02:49;14.07;;;7.50;;
58928;SDS011;44713;53.378;10.022;2022-12-18T11:05:29;16.13;;;8.18;;
58928;SDS011;44713;53.378;10.022;2022-12-18T11:07:55;17.92;;;7.50;;
58928;SDS011;44713;53.378;10.022;2022-12-18T11:10:26;15.18;;;7.82;;
58928;SDS011;44713;53.378;10.022;2022-12-18T11:12:55;12.95;;;7.05;;
58928;SDS011;44713;53.378;10.022;2022-12-18T11:15:33;14.55;;;6.95;;
58928;SDS011;44713;53.378;10.022;2022-12-18T11:17:58;13.18;;;7.97;;
58928;SDS011;44713;53.378;10.022;2022-12-18T11:20:36;15.32;;;7.93;;
58928;SDS011;44713;53.378;10.022;2022-12-18T11:23:05;18.15;;;7.50;;
58928;SDS011;44713;53.378;10.022;2022-12-18T11:25:37;13.75;;;7.20;;
58928;SDS011;44713;53.378;10.022;2022-12-18T11:28:04;15.00;;;7.13;;
58928;SDS011;44713;53.378;10.022;2022-12-18T11:30:49;14.73;;;6.97;;
58928;SDS011;44713;53.378;10.022;2022-12-18T11:33:52;16.88;;;7.43;;
58928;SDS011;44713;53.378;10.022;2022-12-18T11:36:28;14.73;;;7.38;;
58928;SDS011;44713;53.378;10.022;2022-12-18T11:38:58;12.95;;;6.70;;
58928;SDS011;44713;53.378;10.022;2022-12-18T11:44:44;13.77;;;6.93;;
58928;SDS011;44713;53.378;10.022;2022-12-18T11:50:14;11.45;;;6.45;;
58928;SDS011;44713;53.378;10.022;2022-12-18T11:52:43;14.15;;;7.47;;
58928;SDS011;44713;53.378;10.022;2022-12-18T11:55:14;12.00;;;7.18;;
58928;SDS011;44713;53.378;10.022;2022-12-18T11:57:44;12.82;;;6.47;;
58928;SDS011;44713;53.378;10.022;2022-12-18T12:00:23;12.70;;;7.30;;
58928;SDS011;44713;53.378;10.022;2022-12-18T12:03:06;11.07;;;5.47;;
58928;SDS011;44713;53.378;10.022;2022-12-18T12:13:40;10.38;;;4.57;;
58928;SDS011;44713;53.378;10.022;2022-12-18T12:16:27;7.97;;;4.50;;
58928;SDS011;44713;53.378;10.022;2022-12-18T12:22:34;11.02;;;5.35;;
58928;SDS011;44713;53.378;10.022;2022-12-18T12:27:59;13.20;;;5.72;;
58928;SDS011;44713;53.378;10.022;2022-12-18T12:38:55;12.07;;;5.35;;
58928;SDS011;44713;53.378;10.022;2022-12-18T12:41:25;9.15;;;4.88;;
58928;SDS011;44713;53.378;10.022;2022-12-18T12:44:16;11.15;;;5.47;;
58928;SDS011;44713;53.378;10.022;2022-12-18T12:46:47;11.07;;;6.07;;
58928;SDS011;44713;53.378;10.022;2022-12-18T12:49:15;11.50;;;6.30;;
58928;SDS011;44713;53.378;10.022;2022-12-18T12:51:53;12.45;;;6.68;;
58928;SDS011;44713;53.378;10.022;2022-12-18T12:54:28;11.38;;;6.55;;
58928;SDS011;44713;53.378;10.022;2022-12-18T12:56:59;10.88;;;6.38;;
58928;SDS011;44713;53.378;10.022;2022-12-18T12:59:47;14.23;;;7.75;;
58928;SDS011;44713;53.378;10.022;2022-12-18T13:05:06;14.77;;;7.32;;
58928;SDS011;44713;53.378;10.022;2022-12-18T13:08:02;14.20;;;7.75;;
58928;SDS011;44713;53.378;10.022;2022-12-18T13:10:32;15.02;;;8.52;;
58928;SDS011;44713;53.378;10.022;2022-12-18T13:13:07;18.00;;;9.32;;
58928;SDS011;44713;53.378;10.022;2022-12-18T13:18:10;21.52;;;9.95;;
58928;SDS011;44713;53.378;10.022;2022-12-18T13:20:46;18.10;;;9.95;;
58928;SDS011;44713;53.378;10.022;2022-12-18T13:23:27;20.55;;;9.95;;
58928;SDS011;44713;53.378;10.022;2022-12-18T13:30:59;21.17;;;10.35;;
58928;SDS011;44713;53.378;10.022;2022-12-18T13:39:09;25.83;;;11.93;;
58928;SDS011;44713;53.378;10.022;2022-12-18T13:41:35;25.13;;;12.30;;
58928;SDS011;44713;53.378;10.022;2022-12-18T13:44:22;27.02;;;11.48;;
58928;SDS011;44713;53.378;10.022;2022-12-18T13:46:54;25.73;;;12.43;;
58928;SDS011;44713;53.378;10.022;2022-12-18T13:49:21;28.58;;;12.63;;
58928;SDS011;44713;53.378;10.022;2022-12-18T13:51:55;30.30;;;13.55;;
58928;SDS011;44713;53.378;10.022;2022-12-18T13:54:37;32.53;;;14.13;;
58928;SDS011;44713;53.378;10.022;2022-12-18T13:57:05;30.33;;;13.40;;
58928;SDS011;44713;53.378;10.022;2022-12-18T13:59:49;25.52;;;13.07;;
58928;SDS011;44713;53.378;10.022;2022-12-18T14:02:16;29.58;;;14.05;;
58928;SDS011;44713;53.378;10.022;2022-12-18T14:04:46;33.55;;;15.05;;
58928;SDS011;44713;53.378;10.022;2022-12-18T14:07:13;36.45;;;14.85;;
58928;SDS011;44713;53.378;10.022;2022-12-18T14:09:42;34.70;;;15.63;;
58928;SDS011;44713;53.378;10.022;2022-12-18T14:12:30;35.05;;;14.77;;
58928;SDS011;44713;53.378;10.022;2022-12-18T14:18:22;31.15;;;14.18;;
58928;SDS011;44713;53.378;10.022;2022-12-18T14:20:51;31.38;;;14.75;;
58928;SDS011;44713;53.378;10.022;2022-12-18T14:23:31;33.25;;;14.93;;
58928;SDS011;44713;53.378;10.022;2022-12-18T14:25:57;35.83;;;16.25;;
58928;SDS011;44713;53.378;10.022;2022-12-18T14:28:22;34.65;;;15.85;;
58928;SDS011;44713;53.378;10.022;2022-12-18T14:30:48;36.95;;;15.98;;
58928;SDS011;44713;53.378;10.022;2022-12-18T14:33:19;30.50;;;15.05;;
58928;SDS011;44713;53.378;10.022;2022-12-18T14:35:56;38.08;;;15.30;;
58928;SDS011;44713;53.378;10.022;2022-12-18T14:38:38;34.75;;;15.60;;
58928;SDS011;44713;53.378;10.022;2022-12-18T14:41:17;33.55;;;14.32;;
58928;SDS011;44713;53.378;10.022;2022-12-18T14:43:45;34.40;;;14.75;;
58928;SDS011;44713;53.378;10.022;2022-12-18T14:49:02;34.75;;;15.88;;
58928;SDS011;44713;53.378;10.022;2022-12-18T14:51:46;35.72;;;16.10;;
58928;SDS011;44713;53.378;10.022;2022-12-18T14:54:14;39.08;;;16.75;;
58928;SDS011;44713;53.378;10.022;2022-12-18T14:56:46;38.42;;;15.70;;
58928;SDS011;44713;53.378;10.022;2022-12-18T14:59:14;36.00;;;15.43;;
58928;SDS011;44713;53.378;10.022;2022-12-18T15:01:46;35.92;;;15.45;;
58928;SDS011;44713;53.378;10.022;2022-12-18T15:04:26;43.10;;;17.85;;
58928;SDS011;44713;53.378;10.022;2022-12-18T15:07:04;37.28;;;17.63;;
58928;SDS011;44713;53.378;10.022;2022-12-18T15:09:32;40.28;;;16.80;;
58928;SDS011;44713;53.378;10.022;2022-12-18T15:11:58;34.13;;;15.25;;
58928;SDS011;44713;53.378;10.022;2022-12-18T15:16:54;37.05;;;17.13;;
58928;SDS011;44713;53.378;10.022;2022-12-18T15:19:21;40.05;;;17.75;;
58928;SDS011;44713;53.378;10.022;2022-12-18T15:21:58;42.50;;;17.30;;
58928;SDS011;44713;53.378;10.022;2022-12-18T15:24:26;41.85;;;17.25;;
58928;SDS011;44713;53.378;10.022;2022-12-18T15:26:56;41.83;;;17.38;;
58928;SDS011;44713;53.378;10.022;2022-12-18T15:29:22;44.03;;;18.75;;
58928;SDS011;44713;53.378;10.022;2022-12-18T15:34:25;40.95;;;17.30;;
58928;SDS011;44713;53.378;10.022;2022-12-18T15:36:51;40.30;;;18.08;;
58928;SDS011;44713;53.378;10.022;2022-12-18T15:39:17;43.83;;;18.75;;
58928;SDS011;44713;53.378;10.022;2022-12-18T15:41:42;48.92;;;20.98;;
58928;SDS011;44713;53.378;10.022;2022-12-18T15:44:28;51.10;;;20.20;;
58928;SDS011;44713;53.378;10.022;2022-12-18T15:46:55;43.28;;;20.15;;
58928;SDS011;44713;53.378;10.022;2022-12-18T15:49:20;47.97;;;20.38;;
58928;SDS011;44713;53.378;10.022;2022-12-18T15:51:45;43.25;;;18.92;;
58928;SDS011;44713;53.378;10.022;2022-12-18T15:54:17;42.58;;;18.05;;
58928;SDS011;44713;53.378;10.022;2022-12-18T15:57:03;46.00;;;20.00;;
58928;SDS011;44713;53.378;10.022;2022-12-18T15:59:47;39.83;;;17.00;;
58928;SDS011;44713;53.378;10.022;2022-12-18T16:02:14;39.85;;;16.85;;